IAE9951 BIKF-EGLL
Flight info
| Callsign | IAE9951 |
|---|---|
| Flight time | N/A |
| Altitude | 39000 |
| Route | M082F390 DCT OSKUM DCT RATSU/N0478F390 DCT BARKU DCT ORSUM DCT GOW DCT ELBUS DCT NAVSO DCT VAMEB DCT NUGRA DCT |
| Aircraft | B772/H-SDE2E3FGHIJ5LORVWXY/LB1D1 |
Departure
| Time | 2026-05-05 11:04 |
|---|---|
| Airport | Keflavik International Airport (BIKF) |
Arrival
| Time | N/A |
|---|---|
| Airport | London Heathrow Airport (EGLL) |
| Time | Latitude | Longitude | Altitude | Speed | Heading |
|---|---|---|---|---|---|
| 2026-05-05 10:22 | 63.99388 | -22.61263 | 151 ft | 0 kts | 89° |
| 2026-05-05 10:46 | 63.99388 | -22.61274 | 151 ft | 2 kts | 90° |
| 2026-05-05 10:46 | 63.99388 | -22.61307 | 151 ft | 2 kts | 90° |
| 2026-05-05 10:46 | 63.99388 | -22.61321 | 151 ft | 2 kts | 90° |
| 2026-05-05 10:47 | 63.99388 | -22.61337 | 151 ft | 2 kts | 95° |
| 2026-05-05 10:47 | 63.99392 | -22.61369 | 151 ft | 2 kts | 115° |
| 2026-05-05 10:47 | 63.99399 | -22.61398 | 151 ft | 2 kts | 131° |
| 2026-05-05 10:47 | 63.99410 | -22.61421 | 151 ft | 2 kts | 148° |
| 2026-05-05 10:48 | 63.99424 | -22.61435 | 151 ft | 2 kts | 164° |
| 2026-05-05 10:48 | 63.99437 | -22.61441 | 151 ft | 0 kts | 179° |
| 2026-05-05 10:48 | 63.99441 | -22.61441 | 151 ft | 0 kts | 181° |
| 2026-05-05 10:53 | 63.99434 | -22.61441 | 151 ft | 3 kts | 181° |
| 2026-05-05 10:53 | 63.99396 | -22.61439 | 151 ft | 8 kts | 178° |
| 2026-05-05 10:53 | 63.99322 | -22.61437 | 151 ft | 12 kts | 179° |
| 2026-05-05 10:53 | 63.99234 | -22.61434 | 151 ft | 9 kts | 179° |
| 2026-05-05 10:54 | 63.99182 | -22.61395 | 151 ft | 8 kts | 120° |
| 2026-05-05 10:54 | 63.99173 | -22.61243 | 153 ft | 10 kts | 90° |
| 2026-05-05 10:54 | 63.99173 | -22.61080 | 154 ft | 10 kts | 89° |
| 2026-05-05 10:54 | 63.99143 | -22.60954 | 154 ft | 10 kts | 162° |
| 2026-05-05 10:55 | 63.99057 | -22.60945 | 154 ft | 14 kts | 180° |
| 2026-05-05 10:55 | 63.98950 | -22.60946 | 155 ft | 16 kts | 180° |
| 2026-05-05 10:55 | 63.98833 | -22.60945 | 158 ft | 17 kts | 179° |
| 2026-05-05 10:55 | 63.98707 | -22.60944 | 159 ft | 19 kts | 179° |
| 2026-05-05 10:56 | 63.98564 | -22.60943 | 159 ft | 21 kts | 179° |
| 2026-05-05 10:56 | 63.98405 | -22.60944 | 160 ft | 23 kts | 180° |
| 2026-05-05 10:56 | 63.98236 | -22.60946 | 162 ft | 24 kts | 180° |
| 2026-05-05 10:56 | 63.98081 | -22.60946 | 162 ft | 20 kts | 179° |
| 2026-05-05 10:57 | 63.98010 | -22.60945 | 162 ft | 0 kts | 179° |
| 2026-05-05 10:59 | 63.98006 | -22.60945 | 162 ft | 2 kts | 179° |
| 2026-05-05 10:59 | 63.97971 | -22.60945 | 162 ft | 7 kts | 179° |
| 2026-05-05 10:59 | 63.97897 | -22.60944 | 160 ft | 13 kts | 180° |
| 2026-05-05 10:59 | 63.97790 | -22.60946 | 159 ft | 17 kts | 180° |
| 2026-05-05 11:00 | 63.97662 | -22.60947 | 159 ft | 19 kts | 179° |
| 2026-05-05 11:00 | 63.97514 | -22.60946 | 156 ft | 21 kts | 179° |
| 2026-05-05 11:00 | 63.97355 | -22.60948 | 152 ft | 24 kts | 180° |
| 2026-05-05 11:00 | 63.97192 | -22.60947 | 149 ft | 21 kts | 179° |
| 2026-05-05 11:01 | 63.97026 | -22.60947 | 145 ft | 25 kts | 179° |
| 2026-05-05 11:01 | 63.96864 | -22.60949 | 139 ft | 20 kts | 179° |
| 2026-05-05 11:01 | 63.96735 | -22.60951 | 134 ft | 18 kts | 180° |
| 2026-05-05 11:01 | 63.96620 | -22.60951 | 129 ft | 14 kts | 179° |
| 2026-05-05 11:02 | 63.96523 | -22.60951 | 125 ft | 13 kts | 178° |
| 2026-05-05 11:02 | 63.96464 | -22.60865 | 125 ft | 9 kts | 103° |
| 2026-05-05 11:02 | 63.96463 | -22.60693 | 125 ft | 12 kts | 88° |
| 2026-05-05 11:02 | 63.96478 | -22.60562 | 128 ft | 6 kts | 41° |
| 2026-05-05 11:03 | 63.96522 | -22.60550 | 130 ft | 6 kts | 358° |
| 2026-05-05 11:03 | 63.96605 | -22.60552 | 132 ft | 22 kts | 359° |
| 2026-05-05 11:03 | 63.96963 | -22.60538 | 146 ft | 77 kts | 0° |
| 2026-05-05 11:03 | 63.97693 | -22.60547 | 168 ft | 133 kts | 360° |
| 2026-05-05 11:04 | 63.98727 | -22.60544 | 456 ft | 156 kts | 2° |
| 2026-05-05 11:04 | 63.99789 | -22.60557 | 1104 ft | 155 kts | 3° |
| 2026-05-05 11:04 | 64.00890 | -22.60534 | 1727 ft | 162 kts | 2° |
| 2026-05-05 11:04 | 64.01975 | -22.60636 | 2348 ft | 159 kts | 4° |
| 2026-05-05 11:05 | 64.03101 | -22.60528 | 2813 ft | 164 kts | 7° |
| 2026-05-05 11:05 | 64.04216 | -22.60242 | 3382 ft | 162 kts | 15° |
| 2026-05-05 11:05 | 64.05244 | -22.59224 | 3817 ft | 166 kts | 38° |
| 2026-05-05 11:05 | 64.06000 | -22.57233 | 4158 ft | 177 kts | 60° |
| 2026-05-05 11:06 | 64.06377 | -22.54403 | 4461 ft | 196 kts | 84° |
| 2026-05-05 11:06 | 64.06356 | -22.51159 | 4772 ft | 215 kts | 89° |
| 2026-05-05 11:06 | 64.06319 | -22.47636 | 5102 ft | 231 kts | 88° |
| 2026-05-05 11:06 | 64.06300 | -22.43830 | 5424 ft | 248 kts | 90° |
| 2026-05-05 11:07 | 64.05874 | -22.39997 | 5867 ft | 261 kts | 111° |
| 2026-05-05 11:07 | 64.05021 | -22.36333 | 6480 ft | 265 kts | 116° |
| 2026-05-05 11:07 | 64.04101 | -22.32658 | 7070 ft | 269 kts | 117° |
| 2026-05-05 11:07 | 64.03166 | -22.28922 | 7630 ft | 275 kts | 118° |
| 2026-05-05 11:08 | 64.02222 | -22.25138 | 8193 ft | 280 kts | 118° |
| 2026-05-05 11:08 | 64.01250 | -22.21242 | 8726 ft | 285 kts | 119° |
| 2026-05-05 11:08 | 64.00269 | -22.17316 | 9266 ft | 290 kts | 120° |
| 2026-05-05 11:08 | 63.99260 | -22.13289 | 9790 ft | 295 kts | 121° |
| 2026-05-05 11:09 | 63.98246 | -22.09246 | 10275 ft | 300 kts | 121° |
| 2026-05-05 11:09 | 63.97193 | -22.05059 | 10572 ft | 314 kts | 121° |
| 2026-05-05 11:09 | 63.96089 | -22.00678 | 10752 ft | 330 kts | 121° |
| 2026-05-05 11:09 | 63.94909 | -21.96000 | 10894 ft | 347 kts | 121° |
| 2026-05-05 11:10 | 63.93693 | -21.91192 | 11054 ft | 362 kts | 121° |
| 2026-05-05 11:10 | 63.92407 | -21.86114 | 11152 ft | 378 kts | 121° |
| 2026-05-05 11:10 | 63.91093 | -21.80941 | 11385 ft | 388 kts | 121° |
| 2026-05-05 11:10 | 63.89737 | -21.75613 | 11926 ft | 390 kts | 121° |
| 2026-05-05 11:11 | 63.88378 | -21.70283 | 12498 ft | 393 kts | 121° |
| 2026-05-05 11:11 | 63.86996 | -21.64881 | 12995 ft | 399 kts | 121° |
| 2026-05-05 11:11 | 63.85599 | -21.59436 | 13536 ft | 404 kts | 121° |
| 2026-05-05 11:11 | 63.84196 | -21.53976 | 14088 ft | 410 kts | 121° |
| 2026-05-05 11:12 | 63.82743 | -21.48341 | 14723 ft | 415 kts | 121° |
| 2026-05-05 11:12 | 63.81289 | -21.42712 | 15317 ft | 421 kts | 121° |
| 2026-05-05 11:12 | 63.79799 | -21.36963 | 15914 ft | 428 kts | 121° |
| 2026-05-05 11:12 | 63.78303 | -21.31204 | 16567 ft | 433 kts | 122° |
| 2026-05-05 11:13 | 63.76912 | -21.25056 | 17092 ft | 442 kts | 113° |
| 2026-05-05 11:13 | 63.75990 | -21.18429 | 17638 ft | 448 kts | 102° |
| 2026-05-05 11:13 | 63.75483 | -21.11489 | 18175 ft | 455 kts | 97° |
| 2026-05-05 11:13 | 63.75053 | -21.04363 | 18665 ft | 462 kts | 96° |
| 2026-05-05 11:14 | 63.74620 | -20.97244 | 19191 ft | 468 kts | 96° |
| 2026-05-05 11:14 | 63.74169 | -20.89938 | 19790 ft | 473 kts | 96° |
| 2026-05-05 11:14 | 63.73708 | -20.82582 | 20358 ft | 478 kts | 96° |
| 2026-05-05 11:14 | 63.73239 | -20.75205 | 20901 ft | 483 kts | 96° |
| 2026-05-05 11:15 | 63.72752 | -20.67628 | 21399 ft | 489 kts | 96° |
| 2026-05-05 11:15 | 63.72264 | -20.60110 | 21972 ft | 492 kts | 96° |
| 2026-05-05 11:15 | 63.71762 | -20.52463 | 22513 ft | 496 kts | 96° |
| 2026-05-05 11:15 | 63.71036 | -20.44803 | 23018 ft | 503 kts | 105° |
| 2026-05-05 11:16 | 63.69820 | -20.37424 | 23476 ft | 509 kts | 113° |
| 2026-05-05 11:16 | 63.68374 | -20.30184 | 23920 ft | 514 kts | 115° |
| 2026-05-05 11:16 | 63.66874 | -20.22833 | 24359 ft | 519 kts | 115° |
| 2026-05-05 11:16 | 63.65368 | -20.15491 | 24832 ft | 523 kts | 115° |
| 2026-05-05 11:17 | 63.63835 | -20.08038 | 25319 ft | 527 kts | 115° |
| 2026-05-05 11:17 | 63.62312 | -20.00658 | 25818 ft | 529 kts | 115° |
| 2026-05-05 11:17 | 63.60768 | -19.93200 | 26333 ft | 531 kts | 115° |
| 2026-05-05 11:17 | 63.59209 | -19.85699 | 26792 ft | 535 kts | 115° |
| 2026-05-05 11:18 | 63.57626 | -19.78103 | 27235 ft | 539 kts | 115° |
| 2026-05-05 11:18 | 63.56030 | -19.70471 | 27704 ft | 542 kts | 115° |
| 2026-05-05 11:18 | 63.54442 | -19.62906 | 28122 ft | 546 kts | 115° |
| 2026-05-05 11:18 | 63.52827 | -19.55243 | 28534 ft | 549 kts | 115° |
| 2026-05-05 11:19 | 63.51181 | -19.47464 | 28961 ft | 552 kts | 115° |
| 2026-05-05 11:19 | 63.49552 | -19.39787 | 29379 ft | 554 kts | 114° |
| 2026-05-05 11:19 | 63.47890 | -19.31986 | 29851 ft | 555 kts | 115° |
| 2026-05-05 11:19 | 63.46235 | -19.24246 | 30254 ft | 556 kts | 115° |
| 2026-05-05 11:20 | 63.44575 | -19.16512 | 30703 ft | 556 kts | 115° |
| 2026-05-05 11:20 | 63.42915 | -19.08801 | 31113 ft | 556 kts | 115° |
| 2026-05-05 11:20 | 63.41234 | -19.01027 | 31597 ft | 553 kts | 115° |
| 2026-05-05 11:20 | 63.39580 | -18.93406 | 32133 ft | 547 kts | 115° |
| 2026-05-05 11:21 | 63.37953 | -18.85932 | 32643 ft | 541 kts | 115° |
| 2026-05-05 11:21 | 63.36326 | -18.78487 | 33135 ft | 537 kts | 115° |
| 2026-05-05 11:21 | 63.34697 | -18.71060 | 33558 ft | 536 kts | 115° |
| 2026-05-05 11:21 | 63.33071 | -18.63671 | 33977 ft | 534 kts | 115° |
| 2026-05-05 11:22 | 63.31437 | -18.56269 | 34465 ft | 532 kts | 115° |
| 2026-05-05 11:22 | 63.29807 | -18.48911 | 34949 ft | 529 kts | 115° |
| 2026-05-05 11:22 | 63.28193 | -18.41657 | 35431 ft | 527 kts | 115° |
| 2026-05-05 11:22 | 63.26574 | -18.34398 | 35826 ft | 526 kts | 116° |
| 2026-05-05 11:23 | 63.24963 | -18.27202 | 36156 ft | 525 kts | 116° |
| 2026-05-05 11:23 | 63.23346 | -18.20004 | 36492 ft | 524 kts | 116° |
| 2026-05-05 11:23 | 63.21733 | -18.12844 | 36802 ft | 523 kts | 116° |
| 2026-05-05 11:23 | 63.20116 | -18.05695 | 37063 ft | 523 kts | 116° |
| 2026-05-05 11:24 | 63.18479 | -17.98480 | 37345 ft | 522 kts | 116° |
| 2026-05-05 11:24 | 63.16878 | -17.91445 | 37607 ft | 521 kts | 116° |
| 2026-05-05 11:24 | 63.15248 | -17.84312 | 37895 ft | 520 kts | 116° |
| 2026-05-05 11:24 | 63.13614 | -17.77179 | 38189 ft | 520 kts | 116° |
| 2026-05-05 11:25 | 63.11988 | -17.70105 | 38467 ft | 519 kts | 115° |
| 2026-05-05 11:25 | 63.10357 | -17.63037 | 38705 ft | 520 kts | 115° |
| 2026-05-05 11:25 | 63.08725 | -17.55981 | 38925 ft | 520 kts | 116° |
| 2026-05-05 11:25 | 63.07080 | -17.48898 | 39129 ft | 520 kts | 116° |
| 2026-05-05 11:26 | 63.05435 | -17.41836 | 39239 ft | 521 kts | 115° |
| 2026-05-05 11:26 | 63.02143 | -17.27771 | 39247 ft | 519 kts | 116° |
| 2026-05-05 11:27 | 62.98837 | -17.13742 | 39241 ft | 517 kts | 116° |
| 2026-05-05 11:27 | 62.95538 | -16.99828 | 39256 ft | 518 kts | 117° |
| 2026-05-05 11:28 | 62.92216 | -16.85910 | 39237 ft | 516 kts | 116° |
| 2026-05-05 11:28 | 62.88895 | -16.72082 | 39241 ft | 518 kts | 117° |
| 2026-05-05 11:29 | 62.85527 | -16.58147 | 39230 ft | 518 kts | 117° |
| 2026-05-05 11:29 | 62.82167 | -16.44331 | 39226 ft | 517 kts | 117° |
| 2026-05-05 11:30 | 62.78802 | -16.30586 | 39221 ft | 518 kts | 118° |
| 2026-05-05 11:30 | 62.75394 | -16.16749 | 39219 ft | 518 kts | 118° |
| 2026-05-05 11:31 | 62.71988 | -16.03007 | 39218 ft | 518 kts | 118° |
| 2026-05-05 11:31 | 62.68575 | -15.89326 | 39223 ft | 517 kts | 118° |
| 2026-05-05 11:32 | 62.65157 | -15.75706 | 39219 ft | 517 kts | 118° |
| 2026-05-05 11:32 | 62.61730 | -15.62133 | 39222 ft | 515 kts | 118° |
| 2026-05-05 11:33 | 62.58279 | -15.48553 | 39224 ft | 516 kts | 118° |
| 2026-05-05 11:33 | 62.54820 | -15.35021 | 39221 ft | 517 kts | 118° |
| 2026-05-05 11:34 | 62.51314 | -15.21390 | 39218 ft | 517 kts | 119° |
| 2026-05-05 11:34 | 62.47835 | -15.07945 | 39218 ft | 518 kts | 119° |
| 2026-05-05 11:35 | 62.44315 | -14.94425 | 39221 ft | 518 kts | 119° |
| 2026-05-05 11:35 | 62.40812 | -14.81052 | 39221 ft | 516 kts | 119° |
| 2026-05-05 11:36 | 62.37281 | -14.67653 | 39222 ft | 516 kts | 119° |
| 2026-05-05 11:36 | 62.33733 | -14.54266 | 39229 ft | 518 kts | 119° |
| 2026-05-05 11:37 | 62.30167 | -14.40895 | 39227 ft | 516 kts | 119° |
| 2026-05-05 11:37 | 62.26607 | -14.27625 | 39222 ft | 516 kts | 120° |
| 2026-05-05 11:38 | 62.23027 | -14.14358 | 39216 ft | 517 kts | 120° |
| 2026-05-05 11:38 | 62.19429 | -14.01104 | 39228 ft | 517 kts | 121° |
| 2026-05-05 11:39 | 62.15808 | -13.87842 | 39221 ft | 516 kts | 120° |
| 2026-05-05 11:39 | 62.12193 | -13.74680 | 39221 ft | 519 kts | 120° |
| 2026-05-05 11:40 | 62.08563 | -13.61541 | 39230 ft | 517 kts | 120° |
| 2026-05-05 11:40 | 62.04918 | -13.48424 | 39227 ft | 515 kts | 121° |
| 2026-05-05 11:41 | 62.01277 | -13.35397 | 39228 ft | 517 kts | 120° |
| 2026-05-05 11:41 | 61.97598 | -13.22312 | 39220 ft | 516 kts | 121° |
| 2026-05-05 11:42 | 61.93925 | -13.09319 | 39229 ft | 518 kts | 121° |
| 2026-05-05 11:42 | 61.90209 | -12.96253 | 39233 ft | 517 kts | 121° |
| 2026-05-05 11:43 | 61.86514 | -12.83331 | 39220 ft | 517 kts | 121° |
| 2026-05-05 11:43 | 61.82792 | -12.70394 | 39221 ft | 518 kts | 122° |
| 2026-05-05 11:44 | 61.79054 | -12.57471 | 39218 ft | 517 kts | 121° |
| 2026-05-05 11:44 | 61.75302 | -12.44575 | 39229 ft | 518 kts | 121° |
| 2026-05-05 11:45 | 61.71556 | -12.31772 | 39223 ft | 517 kts | 122° |
| 2026-05-05 11:45 | 61.67782 | -12.18943 | 39219 ft | 517 kts | 122° |
| 2026-05-05 11:46 | 61.64013 | -12.06204 | 39220 ft | 517 kts | 122° |
| 2026-05-05 11:46 | 61.60213 | -11.93431 | 39222 ft | 517 kts | 122° |
| 2026-05-05 11:47 | 61.56406 | -11.80709 | 39215 ft | 516 kts | 122° |
| 2026-05-05 11:47 | 61.52607 | -11.68080 | 39219 ft | 516 kts | 122° |
| 2026-05-05 11:48 | 61.46849 | -11.49074 | 39220 ft | 517 kts | 122° |
| 2026-05-05 11:48 | 61.43011 | -11.36491 | 39233 ft | 516 kts | 123° |
| 2026-05-05 11:49 | 61.39171 | -11.23969 | 39222 ft | 517 kts | 123° |
| 2026-05-05 11:49 | 61.35311 | -11.11453 | 39228 ft | 516 kts | 124° |
| 2026-05-05 11:50 | 61.31438 | -10.98964 | 39221 ft | 516 kts | 124° |
| 2026-05-05 11:50 | 61.27537 | -10.86450 | 39224 ft | 517 kts | 123° |
| 2026-05-05 11:51 | 61.23651 | -10.74054 | 39215 ft | 516 kts | 123° |
| 2026-05-05 11:51 | 61.19741 | -10.61646 | 39211 ft | 517 kts | 123° |
| 2026-05-05 11:52 | 61.15799 | -10.49204 | 39200 ft | 517 kts | 123° |
| 2026-05-05 11:52 | 61.11861 | -10.36840 | 39205 ft | 517 kts | 124° |
| 2026-05-05 11:53 | 61.07904 | -10.24486 | 39187 ft | 517 kts | 124° |
| 2026-05-05 11:53 | 61.03944 | -10.12185 | 39190 ft | 519 kts | 124° |
| 2026-05-05 11:54 | 60.99474 | -10.00804 | 39186 ft | 514 kts | 140° |
| 2026-05-05 11:54 | 60.93930 | -9.91542 | 39193 ft | 514 kts | 144° |
| 2026-05-05 11:55 | 60.88293 | -9.82722 | 39175 ft | 511 kts | 145° |
| 2026-05-05 11:55 | 60.82609 | -9.74025 | 39178 ft | 512 kts | 146° |
| 2026-05-05 11:56 | 60.76947 | -9.65476 | 39178 ft | 510 kts | 146° |
| 2026-05-05 11:56 | 60.71215 | -9.56908 | 39183 ft | 512 kts | 146° |
| 2026-05-05 11:57 | 60.65543 | -9.48489 | 39187 ft | 510 kts | 146° |
| 2026-05-05 11:57 | 60.59802 | -9.40023 | 39196 ft | 510 kts | 147° |
| 2026-05-05 11:58 | 60.53913 | -9.32259 | 39187 ft | 507 kts | 150° |
| 2026-05-05 11:58 | 60.47996 | -9.24642 | 39188 ft | 508 kts | 150° |
| 2026-05-05 11:59 | 60.42030 | -9.16963 | 39182 ft | 508 kts | 150° |
| 2026-05-05 11:59 | 60.36096 | -9.09340 | 39190 ft | 508 kts | 150° |
| 2026-05-05 12:00 | 60.30171 | -9.01751 | 39188 ft | 509 kts | 150° |
| 2026-05-05 12:00 | 60.24195 | -8.94125 | 39177 ft | 507 kts | 150° |
| 2026-05-05 12:01 | 60.18290 | -8.86619 | 39176 ft | 507 kts | 150° |
| 2026-05-05 12:01 | 60.12344 | -8.79093 | 39177 ft | 506 kts | 150° |
| 2026-05-05 12:02 | 60.06431 | -8.71641 | 39189 ft | 507 kts | 150° |
| 2026-05-05 12:02 | 60.00479 | -8.64170 | 39187 ft | 506 kts | 150° |
| 2026-05-05 12:03 | 59.94522 | -8.56724 | 39189 ft | 507 kts | 150° |
| 2026-05-05 12:03 | 59.88599 | -8.49353 | 39188 ft | 507 kts | 150° |
| 2026-05-05 12:04 | 59.82633 | -8.41961 | 39203 ft | 506 kts | 150° |
| 2026-05-05 12:04 | 59.76672 | -8.34605 | 39202 ft | 506 kts | 152° |
| 2026-05-05 12:05 | 59.70760 | -8.27341 | 39186 ft | 505 kts | 152° |
| 2026-05-05 12:05 | 59.64780 | -8.20024 | 39192 ft | 505 kts | 152° |
| 2026-05-05 12:06 | 59.58841 | -8.12789 | 39197 ft | 506 kts | 152° |
| 2026-05-05 12:06 | 59.52905 | -8.05586 | 39193 ft | 504 kts | 152° |
| 2026-05-05 12:07 | 59.46968 | -7.98414 | 39195 ft | 505 kts | 152° |
| 2026-05-05 12:07 | 59.40990 | -7.91221 | 39195 ft | 503 kts | 152° |
| 2026-05-05 12:08 | 59.35045 | -7.84098 | 39200 ft | 504 kts | 152° |
| 2026-05-05 12:08 | 59.29104 | -7.77010 | 39186 ft | 504 kts | 151° |
| 2026-05-05 12:09 | 59.23141 | -7.69925 | 39179 ft | 504 kts | 152° |
| 2026-05-05 12:09 | 59.17186 | -7.62878 | 39184 ft | 503 kts | 151° |
| 2026-05-05 12:10 | 59.11217 | -7.55843 | 39187 ft | 504 kts | 151° |
| 2026-05-05 12:10 | 59.05241 | -7.48830 | 39184 ft | 502 kts | 152° |
| 2026-05-05 12:11 | 58.99286 | -7.41869 | 39184 ft | 501 kts | 151° |
| 2026-05-05 12:11 | 58.93360 | -7.34972 | 39184 ft | 502 kts | 152° |
| 2026-05-05 12:12 | 58.87397 | -7.28058 | 39166 ft | 500 kts | 152° |
| 2026-05-05 12:12 | 58.81456 | -7.21198 | 39162 ft | 501 kts | 152° |
| 2026-05-05 12:13 | 58.75531 | -7.14385 | 39163 ft | 501 kts | 152° |
| 2026-05-05 12:13 | 58.69575 | -7.07563 | 39161 ft | 500 kts | 152° |
| 2026-05-05 12:14 | 58.63594 | -7.00740 | 39155 ft | 500 kts | 152° |
| 2026-05-05 12:14 | 58.57657 | -6.93994 | 39159 ft | 501 kts | 152° |
| 2026-05-05 12:15 | 58.51719 | -6.87275 | 39152 ft | 499 kts | 152° |
| 2026-05-05 12:15 | 58.45726 | -6.80520 | 39155 ft | 499 kts | 152° |
| 2026-05-05 12:16 | 58.39816 | -6.73883 | 39159 ft | 497 kts | 152° |
| 2026-05-05 12:16 | 58.33882 | -6.67248 | 39163 ft | 498 kts | 152° |
| 2026-05-05 12:17 | 58.27935 | -6.60625 | 39155 ft | 497 kts | 152° |
| 2026-05-05 12:17 | 58.21980 | -6.54017 | 39155 ft | 497 kts | 152° |
| 2026-05-05 12:18 | 58.16035 | -6.47447 | 39157 ft | 497 kts | 152° |
| 2026-05-05 12:18 | 58.10110 | -6.40924 | 39158 ft | 496 kts | 152° |
| 2026-05-05 12:19 | 58.04155 | -6.34393 | 39156 ft | 495 kts | 153° |
| 2026-05-05 12:19 | 57.98225 | -6.27915 | 39164 ft | 494 kts | 153° |
| 2026-05-05 12:20 | 57.92313 | -6.21482 | 39159 ft | 493 kts | 153° |
| 2026-05-05 12:20 | 57.86412 | -6.15087 | 39154 ft | 493 kts | 153° |
| 2026-05-05 12:21 | 57.80492 | -6.08693 | 39139 ft | 492 kts | 153° |
| 2026-05-05 12:21 | 57.74570 | -6.02324 | 39130 ft | 494 kts | 153° |
| 2026-05-05 12:22 | 57.68655 | -5.95984 | 39135 ft | 491 kts | 153° |
| 2026-05-05 12:22 | 57.62738 | -5.89668 | 39121 ft | 492 kts | 153° |
| 2026-05-05 12:23 | 57.58830 | -5.85508 | 39114 ft | 491 kts | 153° |